createdAt,value
2023-02-05T00:00:20.180Z,0.70
2023-02-05T00:02:47.333Z,0.70
2023-02-05T00:05:14.147Z,0.60
2023-02-05T00:07:40.829Z,0.60
2023-02-05T00:10:07.713Z,0.60
2023-02-05T00:12:34.551Z,0.50
2023-02-05T00:15:01.366Z,0.50
2023-02-05T00:17:28.685Z,0.50
2023-02-05T00:19:55.296Z,0.50
2023-02-05T00:22:21.892Z,0.50
2023-02-05T00:24:48.544Z,0.50
2023-02-05T00:27:15.134Z,0.50
2023-02-05T00:29:41.779Z,0.40
2023-02-05T00:32:08.417Z,0.40
2023-02-05T00:34:34.988Z,0.40
2023-02-05T00:37:01.683Z,0.40
2023-02-05T00:39:28.310Z,0.40
2023-02-05T00:41:54.934Z,0.30
2023-02-05T00:44:21.530Z,0.30
2023-02-05T00:46:48.139Z,0.30
2023-02-05T00:49:14.793Z,0.30
2023-02-05T00:51:41.426Z,0.30
2023-02-05T00:54:08.332Z,0.30
2023-02-05T00:56:35.203Z,0.20
2023-02-05T00:59:02.581Z,0.20
2023-02-05T01:01:29.790Z,0.20
2023-02-05T01:03:56.491Z,0.20
2023-02-05T01:06:23.163Z,0.20
2023-02-05T01:08:49.750Z,0.20
2023-02-05T01:11:16.338Z,0.20
2023-02-05T01:13:43.002Z,0.10
2023-02-05T01:16:10.505Z,0.10
2023-02-05T01:18:37.889Z,0.10
2023-02-05T01:21:04.608Z,0.10
2023-02-05T01:23:31.273Z,0.10
2023-02-05T01:25:58.037Z,0.10
2023-02-05T01:28:24.642Z,0.10
2023-02-05T01:30:52.025Z,0.10
2023-02-05T01:33:18.842Z,0.10
2023-02-05T01:35:45.612Z,0.00
2023-02-05T01:38:13.339Z,0.00
2023-02-05T01:40:40.448Z,0.00
2023-02-05T01:43:17.608Z,0.00
2023-02-05T01:46:24.795Z,0.00
2023-02-05T01:48:56.547Z,0.00
2023-02-05T01:51:24.165Z,0.00
2023-02-05T01:53:51.541Z,0.00
2023-02-05T01:56:29.590Z,0.10
2023-02-05T01:59:00.770Z,0.10
2023-02-05T02:01:28.057Z,0.10
2023-02-05T02:03:56.661Z,0.10
2023-02-05T02:06:23.301Z,0.10
2023-02-05T02:08:49.889Z,0.10
2023-02-05T02:11:18.704Z,0.10
2023-02-05T02:13:48.313Z,0.10
2023-02-05T02:16:15.688Z,0.00
2023-02-05T02:18:42.878Z,0.00
2023-02-05T02:21:35.848Z,0.00
2023-02-05T02:24:17.225Z,0.00
2023-02-05T02:27:36.331Z,0.00
2023-02-05T02:30:11.060Z,0.00
2023-02-05T02:32:42.632Z,-3276.70
2023-02-05T02:35:35.629Z,-3276.70
2023-02-05T02:38:12.300Z,-3276.70
2023-02-05T02:40:49.234Z,-3276.70
2023-02-05T02:43:22.272Z,-3276.70
2023-02-05T02:45:52.988Z,-3276.70
2023-02-05T02:48:23.795Z,-3276.70
2023-02-05T02:50:53.915Z,-3276.70
2023-02-05T02:53:35.504Z,-3276.70
2023-02-05T02:56:04.061Z,-3276.70
2023-02-05T02:58:38.880Z,0.00
2023-02-05T03:01:08.489Z,0.00
2023-02-05T03:03:40.773Z,0.00
2023-02-05T03:06:11.599Z,0.00
2023-02-05T03:08:59.690Z,0.00
2023-02-05T03:11:27.027Z,0.00
2023-02-05T03:13:56.042Z,0.00
2023-02-05T03:16:24.320Z,0.00
2023-02-05T03:18:51.720Z,0.00
2023-02-05T03:21:24.735Z,0.00
2023-02-05T03:23:51.553Z,0.00
2023-02-05T03:26:28.204Z,0.10
2023-02-05T03:28:57.254Z,0.10
2023-02-05T03:31:35.561Z,0.10
2023-02-05T03:34:37.624Z,0.10
2023-02-05T03:37:21.241Z,0.10
2023-02-05T03:40:20.277Z,0.10
2023-02-05T03:42:53.825Z,0.10
2023-02-05T03:45:43.644Z,0.20
2023-02-05T03:48:19.181Z,0.20
2023-02-05T03:51:13.673Z,0.10
2023-02-05T03:54:01.898Z,0.10
2023-02-05T03:56:35.926Z,0.10
2023-02-05T03:59:03.568Z,0.10
2023-02-05T04:01:30.859Z,0.10
2023-02-05T04:03:57.522Z,0.10
2023-02-05T04:06:24.104Z,0.10
2023-02-05T04:08:50.693Z,0.10
2023-02-05T04:11:17.264Z,0.10
2023-02-05T04:13:43.851Z,0.10
2023-02-05T04:16:10.500Z,0.20
2023-02-05T04:18:37.139Z,0.20
2023-02-05T04:21:04.127Z,0.20
2023-02-05T04:23:31.655Z,0.10
2023-02-05T04:25:58.262Z,0.10
2023-02-05T04:28:24.894Z,0.10
2023-02-05T04:30:51.603Z,0.10
2023-02-05T04:33:18.191Z,0.10
2023-02-05T04:35:44.775Z,0.10
2023-02-05T04:38:11.439Z,0.10
2023-02-05T04:40:38.048Z,0.10
2023-02-05T04:43:04.658Z,0.20
2023-02-05T04:45:33.492Z,0.30
2023-02-05T04:48:00.853Z,0.40
2023-02-05T04:50:27.817Z,0.40
2023-02-05T04:52:54.691Z,0.40
2023-02-05T04:55:21.445Z,0.50
2023-02-05T04:57:48.195Z,0.60
2023-02-05T05:00:15.534Z,0.60
2023-02-05T05:02:42.197Z,0.70
2023-02-05T05:05:08.918Z,0.70
2023-02-05T05:07:35.601Z,0.80
2023-02-05T05:10:02.242Z,0.80
2023-02-05T05:12:28.816Z,0.80
2023-02-05T05:14:55.429Z,0.90
2023-02-05T05:17:22.008Z,0.90
2023-02-05T05:19:48.594Z,0.90
2023-02-05T05:22:15.197Z,0.90
2023-02-05T05:24:41.801Z,1.00
2023-02-05T05:27:08.465Z,1.00
2023-02-05T05:29:35.865Z,1.00
2023-02-05T05:32:02.599Z,0.90
2023-02-05T05:34:29.198Z,0.90
2023-02-05T05:36:55.816Z,0.80
2023-02-05T05:39:41.178Z,0.80
2023-02-05T05:42:28.579Z,0.80
2023-02-05T05:44:55.300Z,0.80
2023-02-05T05:47:22.152Z,0.70
2023-02-05T05:49:48.792Z,0.70
2023-02-05T05:52:15.420Z,0.70
2023-02-05T05:54:42.131Z,0.70
2023-02-05T05:57:09.100Z,0.70
2023-02-05T05:59:36.004Z,0.70
2023-02-05T06:02:02.826Z,0.70
2023-02-05T06:04:30.224Z,0.70
2023-02-05T06:06:57.279Z,0.70
2023-02-05T06:09:24.039Z,0.70
2023-02-05T06:11:50.960Z,0.70
2023-02-05T06:14:17.584Z,0.70
2023-02-05T06:16:44.194Z,0.80
2023-02-05T06:19:10.807Z,0.80
2023-02-05T06:21:37.424Z,0.80
2023-02-05T06:24:04.248Z,0.70
2023-02-05T06:26:30.837Z,0.80
2023-02-05T06:28:57.481Z,0.80
2023-02-05T06:31:24.482Z,0.80
2023-02-05T06:33:51.135Z,0.90
2023-02-05T06:36:17.743Z,0.90
2023-02-05T06:38:44.379Z,1.00
2023-02-05T06:41:10.985Z,1.00
2023-02-05T06:43:37.591Z,1.10
2023-02-05T06:46:04.360Z,1.20
2023-02-05T06:48:30.984Z,1.20
2023-02-05T06:50:57.625Z,1.30
2023-02-05T06:53:24.240Z,1.30
2023-02-05T06:55:50.837Z,1.30
2023-02-05T06:58:17.415Z,1.30
2023-02-05T07:00:44.060Z,1.40
2023-02-05T07:03:10.665Z,1.50
2023-02-05T07:05:37.415Z,1.50
2023-02-05T07:08:06.548Z,1.50
2023-02-05T07:10:33.315Z,1.60
2023-02-05T07:12:59.884Z,1.60
2023-02-05T07:15:26.536Z,1.70
2023-02-05T07:17:53.180Z,1.70
2023-02-05T07:20:19.926Z,1.70
2023-02-05T07:22:49.550Z,1.70
2023-02-05T07:25:16.173Z,1.80
2023-02-05T07:27:42.844Z,1.80
2023-02-05T07:30:10.624Z,1.80
2023-02-05T07:32:37.327Z,1.90
2023-02-05T07:35:04.216Z,1.90
2023-02-05T07:37:30.852Z,2.00
2023-02-05T07:39:57.468Z,2.00
2023-02-05T07:42:24.295Z,2.00
2023-02-05T07:44:50.897Z,2.10
2023-02-05T07:47:17.481Z,2.10
2023-02-05T07:49:44.117Z,2.00
2023-02-05T07:52:10.790Z,2.10
2023-02-05T07:54:38.169Z,2.10
2023-02-05T07:57:06.859Z,2.20
2023-02-05T07:59:33.755Z,2.30
2023-02-05T08:02:00.344Z,2.30
2023-02-05T08:04:26.977Z,2.30
2023-02-05T08:06:53.604Z,2.40
2023-02-05T08:09:20.257Z,2.40
2023-02-05T08:11:46.823Z,2.40
2023-02-05T08:14:13.504Z,2.50
2023-02-05T08:16:40.385Z,2.50
2023-02-05T08:19:07.278Z,2.50
2023-02-05T08:21:33.832Z,2.50
2023-02-05T08:24:01.062Z,2.60
2023-02-05T08:26:27.836Z,2.60
2023-02-05T08:28:55.362Z,2.60
2023-02-05T08:31:22.137Z,2.70
2023-02-05T08:33:50.728Z,2.70
2023-02-05T08:36:17.385Z,2.80
2023-02-05T08:38:44.139Z,2.80
2023-02-05T08:41:14.103Z,2.80
2023-02-05T08:43:49.135Z,2.90
2023-02-05T08:46:19.334Z,3.00
2023-02-05T08:48:47.215Z,3.00
2023-02-05T08:51:15.440Z,3.10
2023-02-05T08:53:43.101Z,3.10
2023-02-05T08:56:13.969Z,3.20
2023-02-05T08:58:41.367Z,3.20
2023-02-05T09:01:13.579Z,3.20
2023-02-05T09:03:40.239Z,3.30
2023-02-05T09:06:10.118Z,3.30
2023-02-05T09:08:37.098Z,3.40
2023-02-05T09:11:04.683Z,3.40
2023-02-05T09:13:31.318Z,3.50
2023-02-05T09:15:57.955Z,3.40
2023-02-05T09:18:25.241Z,3.50
2023-02-05T09:20:54.002Z,3.50
2023-02-05T09:23:20.661Z,3.50
2023-02-05T09:25:47.295Z,3.60
2023-02-05T09:28:14.873Z,3.60
2023-02-05T09:30:44.044Z,3.70
2023-02-05T09:33:11.941Z,3.70
2023-02-05T09:35:38.572Z,3.80
2023-02-05T09:38:05.712Z,3.80
2023-02-05T09:40:56.573Z,3.80
2023-02-05T09:43:37.470Z,3.80
2023-02-05T09:46:16.260Z,3.90
2023-02-05T09:48:49.714Z,3.90
2023-02-05T09:51:20.368Z,3.90
2023-02-05T09:53:52.648Z,4.00
2023-02-05T09:56:19.748Z,4.00
2023-02-05T09:58:49.749Z,4.00
2023-02-05T10:01:34.509Z,4.00
2023-02-05T10:04:09.516Z,4.00
2023-02-05T10:06:43.474Z,4.00
2023-02-05T10:09:19.218Z,4.00
2023-02-05T10:11:59.424Z,3.90
2023-02-05T10:14:37.991Z,3.90
2023-02-05T10:17:04.541Z,3.90
2023-02-05T10:19:50.087Z,3.90
2023-02-05T10:22:22.761Z,4.00
2023-02-05T10:25:01.763Z,4.00
2023-02-05T10:27:47.333Z,4.10
2023-02-05T10:30:51.685Z,4.10
2023-02-05T10:33:19.367Z,4.20
2023-02-05T10:36:07.417Z,4.20
2023-02-05T10:38:45.809Z,4.30
2023-02-05T10:41:22.265Z,4.30
2023-02-05T10:44:03.987Z,4.40
2023-02-05T10:46:34.999Z,4.50
2023-02-05T10:49:11.512Z,4.60
2023-02-05T10:51:43.843Z,4.60
2023-02-05T10:54:26.813Z,4.70
2023-02-05T10:56:53.887Z,4.80
2023-02-05T10:59:32.599Z,4.80
2023-02-05T11:02:05.788Z,5.00
2023-02-05T11:04:44.742Z,5.00
2023-02-05T11:07:16.347Z,5.10
2023-02-05T11:09:43.750Z,5.10
2023-02-05T11:12:27.706Z,5.10
2023-02-05T11:15:02.569Z,5.10
2023-02-05T11:17:38.125Z,5.20
2023-02-05T11:20:22.210Z,5.20
2023-02-05T11:22:49.720Z,5.20
2023-02-05T11:25:27.126Z,5.20
2023-02-05T11:28:03.715Z,5.20
2023-02-05T11:30:50.458Z,5.20
2023-02-05T11:33:23.232Z,5.20
2023-02-05T11:36:16.618Z,5.20
2023-02-05T11:38:56.615Z,5.20
2023-02-05T11:41:48.213Z,5.20
2023-02-05T11:44:20.179Z,5.20
2023-02-05T11:46:47.267Z,5.20
2023-02-05T11:49:38.837Z,5.30
2023-02-05T11:52:11.100Z,5.30
2023-02-05T11:54:39.352Z,5.30
2023-02-05T11:57:18.174Z,5.30
2023-02-05T12:00:03.624Z,5.30
2023-02-05T12:02:42.312Z,5.40
2023-02-05T12:05:34.423Z,5.30
2023-02-05T12:08:16.153Z,5.40
2023-02-05T12:11:15.417Z,5.40
2023-02-05T12:14:16.372Z,5.40
2023-02-05T12:16:46.254Z,5.40
2023-02-05T12:19:26.517Z,5.40
2023-02-05T12:22:04.725Z,5.40
2023-02-05T12:24:52.296Z,5.40
2023-02-05T12:27:40.079Z,5.40
2023-02-05T12:30:22.145Z,5.40
2023-02-05T12:33:09.022Z,5.40
2023-02-05T12:35:50.629Z,5.40
2023-02-05T12:38:35.959Z,5.40
2023-02-05T12:41:18.959Z,5.40
2023-02-05T12:43:47.833Z,5.50
2023-02-05T12:46:55.066Z,5.40
2023-02-05T12:49:57.583Z,5.50
2023-02-05T12:52:29.796Z,5.50
2023-02-05T12:55:13.540Z,5.40
2023-02-05T12:57:44.014Z,5.50
2023-02-05T13:00:23.943Z,5.50
2023-02-05T13:02:59.132Z,5.50
2023-02-05T13:05:33.386Z,5.50
2023-02-05T13:08:12.273Z,5.50
2023-02-05T13:10:54.481Z,5.60
2023-02-05T13:13:30.475Z,5.60
2023-02-05T13:16:05.818Z,5.60
2023-02-05T13:18:38.081Z,5.70
2023-02-05T13:21:26.608Z,5.70
2023-02-05T13:24:16.316Z,5.70
2023-02-05T13:27:04.987Z,5.70
2023-02-05T13:29:43.731Z,5.70
2023-02-05T13:32:16.567Z,5.70
2023-02-05T13:34:43.701Z,5.60
2023-02-05T13:37:26.532Z,5.60
2023-02-05T13:40:31.299Z,5.60
2023-02-05T13:43:25.448Z,5.60
2023-02-05T13:46:11.397Z,5.60
2023-02-05T13:48:56.825Z,5.50
2023-02-05T13:51:38.932Z,5.50
2023-02-05T13:54:24.424Z,5.50
2023-02-05T13:57:10.191Z,5.50
2023-02-05T13:59:51.502Z,5.60
2023-02-05T14:02:39.277Z,5.50
2023-02-05T14:05:07.180Z,5.60
2023-02-05T14:07:49.563Z,5.50
2023-02-05T14:10:29.329Z,5.60
2023-02-05T14:13:13.543Z,5.60
2023-02-05T14:15:43.813Z,5.60
2023-02-05T14:18:31.656Z,5.60
2023-02-05T14:20:58.249Z,5.60
2023-02-05T14:23:46.743Z,5.60
2023-02-05T14:26:13.406Z,5.60
2023-02-05T14:28:48.811Z,5.50
2023-02-05T14:31:45.301Z,5.60
2023-02-05T14:34:29.074Z,5.50
2023-02-05T14:36:56.617Z,5.50
2023-02-05T14:39:33.537Z,5.50
2023-02-05T14:42:05.237Z,5.50
2023-02-05T14:44:35.291Z,5.50
2023-02-05T14:47:22.854Z,5.50
2023-02-05T14:49:50.818Z,5.50
2023-02-05T14:52:39.444Z,5.50
2023-02-05T14:55:15.323Z,5.40
2023-02-05T14:58:04.076Z,5.40
2023-02-05T15:00:41.858Z,5.40
2023-02-05T15:03:27.833Z,5.30
2023-02-05T15:05:59.388Z,5.40
2023-02-05T15:08:25.948Z,5.30
2023-02-05T15:11:07.532Z,5.30
2023-02-05T15:13:35.063Z,5.30
2023-02-05T15:16:19.629Z,5.20
2023-02-05T15:18:58.194Z,5.20
2023-02-05T15:21:52.604Z,5.20
2023-02-05T15:24:21.843Z,5.20
2023-02-05T15:27:13.536Z,5.10
2023-02-05T15:29:43.223Z,5.10
2023-02-05T15:32:22.466Z,5.10
2023-02-05T15:35:03.568Z,5.00
2023-02-05T15:37:43.337Z,5.00
2023-02-05T15:40:19.188Z,5.00
2023-02-05T15:42:50.004Z,5.00
2023-02-05T15:45:30.558Z,4.90
2023-02-05T15:48:12.538Z,4.90
2023-02-05T15:51:16.737Z,4.90
2023-02-05T15:53:49.318Z,4.90
2023-02-05T15:56:23.645Z,4.80
2023-02-05T15:58:53.206Z,4.70
2023-02-05T16:01:30.449Z,4.70
2023-02-05T16:03:57.271Z,4.70
2023-02-05T16:06:26.431Z,4.70
2023-02-05T16:08:53.681Z,4.60
2023-02-05T16:11:32.218Z,4.60
2023-02-05T16:14:10.509Z,4.60
2023-02-05T16:16:41.804Z,4.70
2023-02-05T16:19:18.146Z,4.60
2023-02-05T16:21:53.322Z,4.60
2023-02-05T16:24:30.663Z,4.60
2023-02-05T16:27:05.867Z,4.50
2023-02-05T16:29:48.001Z,4.50
2023-02-05T16:32:28.002Z,4.40
2023-02-05T16:34:55.009Z,4.40
2023-02-05T16:37:28.524Z,4.40
2023-02-05T16:39:56.438Z,4.40
2023-02-05T16:42:25.835Z,4.40
2023-02-05T16:45:10.785Z,4.30
2023-02-05T16:47:37.765Z,4.40
2023-02-05T16:50:34.537Z,4.30
2023-02-05T16:53:01.691Z,4.40
2023-02-05T16:55:28.277Z,4.30
2023-02-05T16:58:02.381Z,4.30
2023-02-05T17:00:30.449Z,4.30
2023-02-05T17:02:59.332Z,4.20
2023-02-05T17:05:34.258Z,4.20
2023-02-05T17:08:06.679Z,4.20
2023-02-05T17:10:52.381Z,4.30
2023-02-05T17:13:34.059Z,4.20
2023-02-05T17:16:31.508Z,4.20
2023-02-05T17:19:00.309Z,4.20
2023-02-05T17:21:32.527Z,4.10
2023-02-05T17:24:02.675Z,4.20
2023-02-05T17:26:32.364Z,4.20
2023-02-05T17:29:02.828Z,4.20
2023-02-05T17:31:32.765Z,4.20
2023-02-05T17:33:59.717Z,4.20
2023-02-05T17:36:26.508Z,4.10
2023-02-05T17:38:53.882Z,4.10
2023-02-05T17:41:42.477Z,4.10
2023-02-05T17:44:15.695Z,4.10
2023-02-05T17:46:43.664Z,4.20
2023-02-05T17:49:10.941Z,4.10
2023-02-05T17:51:41.539Z,4.10
2023-02-05T17:54:17.233Z,4.20
2023-02-05T17:56:44.923Z,4.10
2023-02-05T17:59:14.200Z,4.20
2023-02-05T18:01:41.076Z,4.10
2023-02-05T18:04:07.790Z,4.20
2023-02-05T18:06:35.389Z,4.20
2023-02-05T18:09:02.059Z,4.10
2023-02-05T18:11:28.763Z,4.20
2023-02-05T18:13:55.364Z,4.20
2023-02-05T18:16:22.136Z,4.20
2023-02-05T18:18:48.972Z,4.20
2023-02-05T18:21:15.602Z,4.20
2023-02-05T18:23:42.586Z,4.20
2023-02-05T18:26:09.744Z,4.20
2023-02-05T18:28:36.467Z,4.20
2023-02-05T18:31:06.185Z,4.20
2023-02-05T18:33:33.367Z,4.20
2023-02-05T18:36:01.554Z,4.30
2023-02-05T18:38:30.721Z,4.30
2023-02-05T18:41:08.118Z,4.30
2023-02-05T18:43:36.225Z,4.30
2023-02-05T18:46:12.204Z,4.30
2023-02-05T18:48:40.768Z,4.30
2023-02-05T18:51:09.226Z,4.30
2023-02-05T18:53:38.917Z,4.30
2023-02-05T18:56:08.435Z,4.30
2023-02-05T18:58:35.947Z,4.30
2023-02-05T19:01:10.138Z,4.30
2023-02-05T19:03:37.890Z,4.30
2023-02-05T19:06:16.107Z,4.30
2023-02-05T19:08:43.608Z,4.30
2023-02-05T19:11:16.014Z,4.30
2023-02-05T19:13:43.006Z,4.20
2023-02-05T19:16:13.366Z,4.20
2023-02-05T19:18:42.078Z,4.20
2023-02-05T19:21:14.213Z,4.20
2023-02-05T19:23:42.137Z,4.20
2023-02-05T19:26:14.347Z,4.20
2023-02-05T19:28:41.990Z,4.20
2023-02-05T19:31:11.348Z,4.20
2023-02-05T19:33:38.621Z,4.20
2023-02-05T19:36:06.816Z,4.20
2023-02-05T19:38:35.499Z,4.20
2023-02-05T19:41:07.044Z,4.20
2023-02-05T19:43:33.994Z,4.20
2023-02-05T19:46:05.861Z,4.10
2023-02-05T19:48:33.112Z,4.10
2023-02-05T19:51:06.971Z,4.10
2023-02-05T19:53:34.634Z,4.10
2023-02-05T19:56:08.594Z,4.10
2023-02-05T19:58:36.388Z,4.10
2023-02-05T20:01:14.538Z,4.00
2023-02-05T20:03:41.545Z,4.00
2023-02-05T20:06:09.472Z,4.00
2023-02-05T20:08:36.119Z,4.00
2023-02-05T20:11:03.207Z,4.00
2023-02-05T20:13:31.522Z,4.00
2023-02-05T20:16:12.749Z,4.00
2023-02-05T20:18:40.859Z,4.00
2023-02-05T20:21:18.432Z,4.00
2023-02-05T20:23:46.059Z,4.10
2023-02-05T20:26:14.361Z,4.00
2023-02-05T20:29:00.934Z,4.10
2023-02-05T20:31:37.781Z,4.10
2023-02-05T20:34:18.169Z,4.10
2023-02-05T20:36:47.126Z,4.10
2023-02-05T20:39:17.014Z,4.10
2023-02-05T20:41:45.136Z,4.10
2023-02-05T20:44:11.727Z,4.10
2023-02-05T20:46:38.319Z,4.20
2023-02-05T20:49:04.981Z,4.20
2023-02-05T20:51:31.653Z,4.10
2023-02-05T20:53:59.263Z,4.20
2023-02-05T20:56:28.288Z,4.20
2023-02-05T20:58:57.348Z,4.10
2023-02-05T21:01:25.764Z,4.10
2023-02-05T21:03:55.705Z,4.10
2023-02-05T21:06:23.478Z,4.10
2023-02-05T21:08:51.642Z,4.00
2023-02-05T21:11:19.462Z,4.00
2023-02-05T21:13:47.468Z,4.00
2023-02-05T21:16:15.676Z,4.00
2023-02-05T21:18:44.395Z,4.00
2023-02-05T21:21:20.641Z,4.00
2023-02-05T21:23:47.626Z,4.00
2023-02-05T21:26:26.508Z,4.00
2023-02-05T21:28:55.166Z,4.00
2023-02-05T21:31:22.814Z,4.00
2023-02-05T21:33:49.509Z,4.00
2023-02-05T21:36:18.629Z,4.00
2023-02-05T21:38:45.229Z,4.00
2023-02-05T21:41:17.181Z,4.10
2023-02-05T21:43:47.861Z,4.10
2023-02-05T21:46:14.528Z,4.10
2023-02-05T21:48:41.388Z,4.00
2023-02-05T21:51:09.059Z,4.00
2023-02-05T21:53:35.831Z,4.00
2023-02-05T21:56:04.355Z,4.10
2023-02-05T21:58:35.729Z,4.10
2023-02-05T22:01:14.376Z,4.10
2023-02-05T22:03:42.771Z,4.10
2023-02-05T22:06:09.897Z,4.10
2023-02-05T22:08:39.097Z,4.10
2023-02-05T22:11:08.794Z,4.10
2023-02-05T22:13:38.629Z,4.10
2023-02-05T22:16:17.160Z,4.10
2023-02-05T22:18:43.777Z,4.10
2023-02-05T22:21:13.185Z,4.10
2023-02-05T22:23:41.200Z,4.10
2023-02-05T22:26:09.259Z,4.10
2023-02-05T22:28:36.449Z,4.10
2023-02-05T22:31:05.651Z,4.10
2023-02-05T22:33:33.674Z,4.10
2023-02-05T22:36:00.385Z,4.10
2023-02-05T22:38:30.098Z,4.00
2023-02-05T22:40:56.899Z,4.00
2023-02-05T22:43:23.581Z,4.00
2023-02-05T22:45:50.404Z,4.00
2023-02-05T22:48:17.071Z,3.90
2023-02-05T22:50:44.680Z,3.90
2023-02-05T22:53:12.460Z,3.80
2023-02-05T22:55:40.141Z,3.90
2023-02-05T22:58:07.467Z,3.80
2023-02-05T23:00:34.143Z,3.80
2023-02-05T23:03:01.208Z,3.80
2023-02-05T23:05:33.048Z,3.80
2023-02-05T23:07:59.879Z,3.80
2023-02-05T23:10:27.016Z,3.80
2023-02-05T23:12:53.639Z,3.90
2023-02-05T23:15:20.259Z,4.00
2023-02-05T23:17:46.847Z,4.10
2023-02-05T23:20:13.491Z,4.10
2023-02-05T23:22:40.066Z,4.20
2023-02-05T23:25:06.875Z,4.20
2023-02-05T23:27:34.199Z,4.30
2023-02-05T23:30:00.787Z,4.30
2023-02-05T23:32:27.408Z,4.20
2023-02-05T23:34:54.106Z,4.20
2023-02-05T23:37:20.703Z,4.20
2023-02-05T23:39:47.288Z,4.20
2023-02-05T23:42:13.861Z,4.00
2023-02-05T23:44:40.485Z,4.00
2023-02-05T23:47:07.407Z,4.00
2023-02-05T23:49:34.002Z,4.00
2023-02-05T23:52:00.571Z,4.00
2023-02-05T23:54:27.165Z,4.00
2023-02-05T23:56:55.147Z,4.10
2023-02-05T23:59:21.890Z,4.00
